Time;durP1;ratioP1;P1;durP2;ratioP2;P2;SDS_P1;SDS_P2;PMS_P1;PMS_P2;Temp;Humidity;BMP_temperature;BMP_pressure;BME280_temperature;BME280_humidity;BME280_pressure;Samples;Min_cycle;Max_cycle;Signal;HPM_P1;HPM_P2
2021/06/07 00:01:25;;;;;;;18.98;12.02;;;;;;;17.60;69.06;98876.50;5113239;28;20036;-93
2021/06/07 00:03:52;;;;;;;19.27;12.02;;;;;;;17.56;69.00;98873.09;5115853;28;20118;-91
2021/06/07 00:06:18;;;;;;;15.50;11.20;;;;;;;17.66;68.75;98884.25;5115860;27;20035;-92
2021/06/07 00:08:46;;;;;;;17.58;12.43;;;;;;;17.74;68.86;98890.06;5114065;28;20040;-90
2021/06/07 00:11:12;;;;;;;17.98;11.60;;;;;;;17.71;69.17;98876.78;5113763;28;20028;-90
2021/06/07 00:13:39;;;;;;;19.23;12.32;;;;;;;17.83;69.03;98886.91;5114369;28;20039;-91
2021/06/07 00:16:05;;;;;;;17.20;12.45;;;;;;;17.83;68.82;98878.84;5112514;28;20046;-92
2021/06/07 00:18:32;;;;;;;22.15;11.63;;;;;;;17.79;68.56;98861.09;5114340;28;20607;-91
2021/06/07 00:21:03;;;;;;;15.43;12.60;;;;;;;17.96;68.60;98881.72;5111981;28;20043;-92
2021/06/07 00:23:29;;;;;;;17.05;12.13;;;;;;;17.91;68.47;98873.03;5114536;28;20047;-91
2021/06/07 00:25:57;;;;;;;17.73;11.85;;;;;;;17.96;68.26;98868.28;5115099;28;20066;-94
2021/06/07 00:28:23;;;;;;;18.33;12.05;;;;;;;18.04;68.17;98875.91;5114659;28;20044;-91
2021/06/07 00:30:49;;;;;;;17.65;11.85;;;;;;;18.09;68.39;98887.28;5113064;28;20040;-91
2021/06/07 00:33:16;;;;;;;20.02;12.52;;;;;;;18.02;68.33;98864.34;5114756;28;20042;-93
2021/06/07 00:35:42;;;;;;;20.08;11.95;;;;;;;18.01;68.37;98876.94;5111709;28;20066;-91
2021/06/07 00:38:08;;;;;;;19.05;12.55;;;;;;;17.92;69.13;98877.47;5114734;28;20048;-91
2021/06/07 00:40:34;;;;;;;15.93;11.68;;;;;;;17.81;69.28;98872.63;5115908;28;20039;-90
2021/06/07 00:43:02;;;;;;;18.58;11.85;;;;;;;17.76;69.59;98874.72;5115820;28;20044;-90
2021/06/07 00:45:31;;;;;;;15.43;11.32;;;;;;;17.62;69.87;98864.69;5111957;28;20051;-92
2021/06/07 00:48:00;;;;;;;19.23;11.73;;;;;;;17.62;69.97;98863.84;5111412;28;20070;-91
2021/06/07 00:50:35;;;;;;;21.10;12.57;;;;;;;17.53;70.54;98867.03;5114638;28;20567;-93
2021/06/07 00:53:03;;;;;;;18.92;12.45;;;;;;;17.47;70.86;98864.66;5113669;28;20048;-92
2021/06/07 00:55:33;;;;;;;16.95;11.60;;;;;;;17.40;70.82;98854.25;5114733;28;20039;-92
2021/06/07 00:58:01;;;;;;;17.85;12.02;;;;;;;17.23;71.67;98855.13;5115143;28;20415;-91
2021/06/07 01:00:28;;;;;;;18.02;11.85;;;;;;;17.23;71.86;98854.28;5112587;28;20042;-91
2021/06/07 01:02:55;;;;;;;18.95;12.25;;;;;;;17.39;70.86;98860.59;5113327;28;20035;-92
2021/06/07 01:05:22;;;;;;;20.95;12.80;;;;;;;17.35;70.78;98850.94;5114689;28;20031;-91
2021/06/07 01:07:48;;;;;;;19.13;11.90;;;;;;;17.36;70.78;98857.19;5114768;28;20044;-90
2021/06/07 01:10:15;;;;;;;18.05;12.30;;;;;;;17.33;70.87;98857.34;5114581;28;20036;-90
2021/06/07 01:12:40;;;;;;;14.75;11.30;;;;;;;17.28;70.78;98846.81;5114920;28;20061;-94
2021/06/07 01:15:10;;;;;;;19.85;12.48;;;;;;;17.30;70.91;98849.44;5112756;28;20881;-91
2021/06/07 01:17:36;;;;;;;16.73;11.55;;;;;;;17.23;71.33;98840.84;5114597;28;20501;-90
2021/06/07 01:20:04;;;;;;;20.15;11.30;;;;;;;17.29;71.68;98859.34;5114570;28;20044;-92
2021/06/07 01:22:31;;;;;;;17.58;11.32;;;;;;;17.24;71.73;98839.91;5117427;28;20377;-90
2021/06/07 01:24:57;;;;;;;19.40;12.02;;;;;;;17.29;71.35;98840.50;5117193;28;20521;-92
2021/06/07 01:27:23;;;;;;;16.95;11.63;;;;;;;17.32;71.41;98848.41;5120913;27;20036;-92
2021/06/07 01:29:50;;;;;;;20.50;12.50;;;;;;;17.31;71.44;98840.44;5116300;28;20040;-91
2021/06/07 01:32:16;;;;;;;15.82;11.48;;;;;;;17.28;71.39;98830.69;5118090;28;20046;-92
2021/06/07 01:34:42;;;;;;;15.15;10.93;;;;;;;17.37;71.08;98834.72;5117904;28;20044;-91
2021/06/07 01:37:08;;;;;;;19.30;11.52;;;;;;;17.25;71.38;98822.81;5120805;27;20067;-90
2021/06/07 01:39:35;;;;;;;16.17;11.23;;;;;;;17.30;71.45;98830.63;5118218;28;20492;-91
2021/06/07 01:42:01;;;;;;;17.05;12.13;;;;;;;17.27;71.55;98828.13;5118157;28;20065;-94
2021/06/07 01:44:27;;;;;;;16.25;11.50;;;;;;;17.21;71.74;98824.78;5116627;28;20444;-90
2021/06/07 01:46:53;;;;;;;19.35;12.35;;;;;;;17.09;71.83;98813.81;5117712;28;20044;-90
2021/06/07 01:49:19;;;;;;;16.65;12.07;;;;;;;17.11;71.97;98834.31;5117773;28;20089;-93
2021/06/07 01:51:45;;;;;;;19.02;12.90;;;;;;;17.00;72.76;98826.81;5117529;28;20044;-90
2021/06/07 01:54:11;;;;;;;18.15;12.48;;;;;;;16.95;73.00;98820.78;5117845;28;20088;-91
2021/06/07 01:56:39;;;;;;;18.25;12.32;;;;;;;16.83;73.12;98803.50;5116535;28;20067;-91
2021/06/07 01:59:05;;;;;;;18.55;11.77;;;;;;;16.89;73.33;98807.69;5116716;28;20055;-90
2021/06/07 02:01:31;;;;;;;17.13;12.10;;;;;;;16.99;73.30;98821.50;5115968;28;20028;-91
2021/06/07 02:03:57;;;;;;;16.88;11.48;;;;;;;16.96;73.28;98803.75;5117555;28;20484;-91
2021/06/07 02:06:25;;;;;;;15.88;11.38;;;;;;;16.95;73.56;98804.66;5117747;28;20036;-93
2021/06/07 02:08:51;;;;;;;15.20;11.73;;;;;;;17.00;73.08;98799.94;5117942;28;20065;-90
2021/06/07 02:11:19;;;;;;;18.77;11.75;;;;;;;16.97;73.26;98791.16;5121079;27;20054;-91
2021/06/07 02:13:48;;;;;;;15.57;11.27;;;;;;;17.04;73.06;98801.53;5117452;28;20036;-94
2021/06/07 02:16:17;;;;;;;14.75;10.85;;;;;;;16.92;73.43;98787.88;5111874;28;20043;-91
2021/06/07 02:18:43;;;;;;;17.13;10.82;;;;;;;16.99;73.21;98798.19;5116434;28;20040;-93
2021/06/07 02:21:10;;;;;;;17.85;11.48;;;;;;;17.00;73.12;98799.06;5117099;28;20122;-91
2021/06/07 02:23:37;;;;;;;14.15;10.23;;;;;;;16.86;73.18;98791.72;5116928;28;20039;-91
2021/06/07 02:26:05;;;;;;;16.15;11.55;;;;;;;16.84;73.57;98796.31;5112415;28;20044;-90
2021/06/07 02:28:31;;;;;;;19.55;11.63;;;;;;;16.83;73.55;98797.28;5103762;28;20028;-92
2021/06/07 02:30:59;;;;;;;18.08;11.85;;;;;;;16.82;73.45;98784.78;5112750;28;20059;-91
2021/06/07 02:33:25;;;;;;;18.17;11.45;;;;;;;16.83;73.95;98797.28;5115808;28;20054;-94
2021/06/07 02:35:51;;;;;;;17.38;11.80;;;;;;;16.85;73.59;98792.69;5116404;28;20147;-90
2021/06/07 02:38:17;;;;;;;16.55;11.45;;;;;;;16.91;73.55;98792.34;5116800;28;20118;-90
2021/06/07 02:40:45;;;;;;;19.33;11.52;;;;;;;16.68;73.91;98774.75;5123840;27;20522;-90
2021/06/07 02:43:12;;;;;;;18.05;11.55;;;;;;;16.75;73.82;98797.63;5118306;27;20089;-91
2021/06/07 02:45:38;;;;;;;18.92;13.35;;;;;;;16.64;74.41;98798.19;5114833;28;20047;-92
2021/06/07 02:48:06;;;;;;;18.42;13.38;;;;;;;16.64;74.42;98794.63;5116318;28;20043;-91
2021/06/07 02:50:34;;;;;;;17.00;11.97;;;;;;;16.61;74.13;98797.47;5116066;28;20044;-91
2021/06/07 02:53:00;;;;;;;17.30;12.23;;;;;;;16.65;74.41;98809.78;5116164;28;20569;-92
2021/06/07 02:55:29;;;;;;;18.63;11.93;;;;;;;16.62;74.46;98804.59;5116619;28;20032;-91
2021/06/07 02:57:55;;;;;;;;;;;;;;;16.63;74.28;98807.19;5117706;28;20035;-91
2021/06/07 03:00:27;;;;;;;16.55;11.80;;;;;;;16.60;74.19;98804.66;5114441;28;19916;-93
2021/06/07 03:02:54;;;;;;;15.38;11.38;;;;;;;16.79;73.42;98807.25;5108861;28;20493;-90
2021/06/07 03:05:21;;;;;;;18.40;11.98;;;;;;;16.82;73.41;98814.31;5116175;28;20091;-93
2021/06/07 03:07:47;;;;;;;21.55;11.88;;;;;;;16.74;73.40;98819.19;5116792;28;20028;-91
2021/06/07 03:10:14;;;;;;;18.20;12.57;;;;;;;16.50;74.00;98808.75;5115168;28;20035;-92
2021/06/07 03:12:40;;;;;;;19.42;12.18;;;;;;;16.46;74.62;98812.56;5116049;28;20094;-91
2021/06/07 03:15:07;;;;;;;18.35;12.68;;;;;;;16.18;75.64;98799.66;5113565;28;20035;-92
2021/06/07 03:17:33;;;;;;;19.27;12.20;;;;;;;16.30;75.47;98814.25;5113317;28;20546;-90
2021/06/07 03:19:59;;;;;;;22.55;12.30;;;;;;;16.28;75.35;98816.16;5115803;28;20127;-91
2021/06/07 03:22:26;;;;;;;21.05;12.93;;;;;;;16.30;75.25;98825.84;5116119;28;20032;-93
2021/06/07 03:24:53;;;;;;;15.68;11.43;;;;;;;16.28;75.42;98833.09;5116200;28;20063;-91
2021/06/07 03:27:19;;;;;;;17.15;11.98;;;;;;;16.14;75.53;98819.53;5115741;28;20035;-92
2021/06/07 03:29:46;;;;;;;18.73;11.88;;;;;;;16.28;75.52;98833.09;5115394;28;20050;-91
2021/06/07 03:32:12;;;;;;;18.50;12.07;;;;;;;16.22;75.52;98836.09;5113921;28;20693;-92
2021/06/07 03:34:39;;;;;;;18.85;12.45;;;;;;;16.20;75.86;98840.69;5104330;28;20043;-92
2021/06/07 03:37:05;;;;;;;17.10;11.55;;;;;;;16.14;76.03;98833.78;5115026;28;20071;-92
2021/06/07 03:39:32;;;;;;;17.83;11.93;;;;;;;16.10;76.24;98828.66;5115721;28;20539;-92
2021/06/07 03:41:58;;;;;;;19.08;12.00;;;;;;;16.14;75.95;98849.03;5115279;28;20053;-90
2021/06/07 03:44:24;;;;;;;17.88;11.40;;;;;;;16.07;76.42;98837.72;5113474;28;20043;-92
2021/06/07 03:46:50;;;;;;;17.52;12.60;;;;;;;16.08;76.21;98841.28;5116787;27;20036;-91
2021/06/07 03:49:16;;;;;;;18.67;12.38;;;;;;;16.14;76.31;98847.22;5115759;28;20445;-92
2021/06/07 03:51:42;;;;;;;17.98;12.65;;;;;;;16.03;76.61;98838.81;5115063;28;20134;-92
2021/06/07 03:54:08;;;;;;;19.67;12.95;;;;;;;16.00;76.69;98833.59;5115973;28;20568;-90
2021/06/07 03:56:36;;;;;;;17.02;12.25;;;;;;;16.09;76.69;98849.25;5115276;28;20047;-91
2021/06/07 03:59:04;;;;;;;17.40;12.02;;;;;;;16.12;76.56;98853.59;5115820;28;20143;-92
2021/06/07 04:01:30;;;;;;;18.30;12.05;;;;;;;16.02;76.48;98837.91;5118823;27;20051;-92
2021/06/07 04:03:56;;;;;;;18.02;12.20;;;;;;;16.16;76.57;98850.69;5115180;28;20035;-92
2021/06/07 04:06:22;;;;;;;17.05;12.45;;;;;;;16.18;76.43;98848.81;5110247;28;20047;-91
2021/06/07 04:08:49;;;;;;;19.17;12.85;;;;;;;16.13;76.65;98834.72;5115403;28;20028;-91
2021/06/07 04:11:15;;;;;;;16.55;11.95;;;;;;;16.23;76.37;98840.53;5113963;28;20036;-92
2021/06/07 04:13:42;;;;;;;18.58;11.93;;;;;;;16.25;76.22;98844.00;5115249;28;20035;-91
2021/06/07 04:16:08;;;;;;;18.55;12.65;;;;;;;16.32;76.50;98856.16;5111538;28;20041;-91
2021/06/07 04:18:37;;;;;;;20.05;12.77;;;;;;;16.20;76.42;98833.50;5113704;28;20075;-94
2021/06/07 04:21:03;;;;;;;16.10;12.18;;;;;;;16.27;76.88;98830.53;5111801;28;20043;-92
2021/06/07 04:23:29;;;;;;;18.25;12.02;;;;;;;16.44;76.50;98846.66;5114584;28;20059;-90
2021/06/07 04:25:55;;;;;;;19.95;12.23;;;;;;;16.46;76.13;98838.50;5114598;28;20093;-90
2021/06/07 04:28:20;;;;;;;16.88;12.88;;;;;;;16.57;75.95;98839.72;5115136;28;20039;-90
2021/06/07 04:30:48;;;;;;;19.55;13.13;;;;;;;16.66;75.58;98840.22;5113760;28;20039;-92
2021/06/07 04:33:13;;;;;;;17.88;11.70;;;;;;;16.69;75.02;98823.94;5115297;28;20040;-91
2021/06/07 04:35:39;;;;;;;18.45;13.10;;;;;;;16.82;73.68;98822.38;5114858;28;20546;-93
2021/06/07 04:38:06;;;;;;;16.73;13.07;;;;;;;16.86;73.38;98826.66;5115874;28;20039;-91
2021/06/07 04:40:35;;;;;;;21.42;13.25;;;;;;;16.97;73.31;98826.94;5115222;28;20047;-93
2021/06/07 04:43:05;;;;;;;18.38;12.40;;;;;;;17.05;73.44;98831.94;5114568;28;20036;-92
2021/06/07 04:45:31;;;;;;;20.33;13.68;;;;;;;17.11;73.44;98828.94;5113039;28;20499;-91
2021/06/07 04:47:59;;;;;;;21.52;12.52;;;;;;;17.27;73.21;98845.09;5114556;28;20036;-91
2021/06/07 04:50:27;;;;;;;18.48;12.40;;;;;;;17.31;72.58;98837.75;5112655;28;20068;-90
2021/06/07 04:55:53;;;;;;;19.17;13.85;;;;;;;17.42;72.13;98840.72;5148947;27;20151;-92
2021/06/07 04:58:22;;;;;;;16.90;12.98;;;;;;;17.59;71.80;98838.00;5131366;28;20108;-90
2021/06/07 05:00:51;;;;;;;18.40;13.48;;;;;;;17.68;71.66;98836.63;5128745;27;20036;-92
2021/06/07 05:03:17;;;;;;;20.30;13.63;;;;;;;17.63;71.40;98831.50;5131650;28;20072;-92
2021/06/07 05:05:44;;;;;;;19.08;12.90;;;;;;;17.64;71.05;98835.91;5132263;27;20370;-89
2021/06/07 05:08:10;;;;;;;21.85;13.93;;;;;;;17.57;71.37;98814.84;5132379;27;20043;-88
2021/06/07 05:10:36;;;;;;;20.10;12.77;;;;;;;17.68;71.12;98831.25;5132677;27;20035;-95
2021/06/07 05:13:04;;;;;;;18.10;13.10;;;;;;;17.72;71.16;98823.84;5132940;27;20050;-89
2021/06/07 05:15:30;;;;;;;20.88;13.80;;;;;;;17.77;70.53;98816.41;5130665;27;20411;-94
2021/06/07 05:17:57;;;;;;;19.25;13.50;;;;;;;17.96;70.43;98832.44;5131872;27;20423;-93
2021/06/07 05:20:27;;;;;;;21.27;13.47;;;;;;;17.96;70.15;98832.44;5132022;27;20374;-90
2021/06/07 05:22:54;;;;;;;20.67;13.25;;;;;;;18.01;69.98;98831.19;5131985;27;20036;-93
2021/06/07 05:25:21;;;;;;;21.42;14.70;;;;;;;18.01;70.09;98820.44;5132383;27;20041;-93
2021/06/07 05:27:48;;;;;;;20.60;13.95;;;;;;;18.04;70.18;98830.16;5132783;27;20142;-94
2021/06/07 05:30:18;;;;;;;22.35;14.20;;;;;;;18.14;69.48;98839.44;5128652;27;20055;-91
2021/06/07 05:32:46;;;;;;;18.95;13.13;;;;;;;18.15;69.71;98829.53;5132194;27;20096;-91
2021/06/07 05:35:14;;;;;;;19.02;13.23;;;;;;;18.30;69.05;98825.97;5131980;27;20035;-91
2021/06/07 05:37:40;;;;;;;23.50;15.02;;;;;;;18.54;68.38;98838.97;5130931;27;20122;-94
2021/06/07 05:40:08;;;;;;;22.75;14.43;;;;;;;18.64;67.98;98846.41;5132830;27;20046;-92
2021/06/07 05:42:34;;;;;;;22.65;14.20;;;;;;;18.57;67.61;98828.88;5132156;27;20127;-91
2021/06/07 05:45:00;;;;;;;20.48;13.90;;;;;;;18.83;66.47;98831.91;5131644;27;20058;-92
2021/06/07 05:47:27;;;;;;;20.08;13.82;;;;;;;19.11;65.34;98832.94;5132283;27;20031;-92
2021/06/07 05:49:53;;;;;;;22.17;14.63;;;;;;;19.21;65.36;98834.94;5131152;28;20143;-91
2021/06/07 05:52:19;;;;;;;20.13;14.30;;;;;;;19.38;64.86;98836.59;5131956;27;20039;-92
2021/06/07 05:54:45;;;;;;;24.00;15.77;;;;;;;19.50;64.43;98830.47;5132010;27;20047;-92
2021/06/07 05:57:11;;;;;;;21.10;13.98;;;;;;;19.74;63.94;98827.22;5132648;27;20036;-93
2021/06/07 05:59:37;;;;;;;27.40;15.05;;;;;;;19.99;62.63;98841.81;5132442;27;20535;-92
2021/06/07 06:02:04;;;;;;;24.40;15.35;;;;;;;20.10;62.32;98844.69;5130315;27;20483;-90
2021/06/07 06:04:32;;;;;;;21.20;14.27;;;;;;;20.24;61.69;98820.34;5132109;27;20038;-91
2021/06/07 06:06:58;;;;;;;20.90;13.93;;;;;;;20.30;60.96;98832.59;5120052;27;20031;-92
2021/06/07 06:09:24;;;;;;;23.90;14.20;;;;;;;20.37;61.10;98836.63;5118908;28;20040;-90
2021/06/07 06:11:50;;;;;;;26.65;15.30;;;;;;;20.48;61.22;98839.47;5117623;28;20515;-92
2021/06/07 06:14:16;;;;;;;21.17;14.45;;;;;;;20.95;60.30;98839.97;5115839;27;20024;-90
2021/06/07 06:16:42;;;;;;;23.17;15.60;;;;;;;21.29;58.84;98840.31;5115272;28;20035;-90
2021/06/07 06:19:10;;;;;;;26.50;15.57;;;;;;;21.45;57.46;98835.59;5118703;28;20434;-89
2021/06/07 06:21:39;;;;;;;23.47;15.83;;;;;;;21.18;58.60;98827.53;5117533;28;20051;-91
2021/06/07 06:24:06;;;;;;;22.70;14.95;;;;;;;21.50;57.96;98838.84;5117636;28;20432;-92
2021/06/07 06:26:32;;;;;;;21.98;14.10;;;;;;;21.56;57.24;98820.44;5116964;28;20039;-90
2021/06/07 06:28:58;;;;;;;20.90;13.38;;;;;;;21.79;56.47;98827.75;5116816;28;20062;-91
2021/06/07 06:31:24;;;;;;;23.17;14.32;;;;;;;22.06;55.72;98826.75;5115701;28;20040;-90
2021/06/07 06:33:50;;;;;;;19.50;13.57;;;;;;;21.83;56.30;98825.72;5118063;28;20055;-90
2021/06/07 06:36:16;;;;;;;22.88;14.40;;;;;;;21.82;56.13;98832.97;5117494;28;20123;-90
2021/06/07 06:38:43;;;;;;;21.15;14.07;;;;;;;21.69;56.12;98826.72;5119493;28;20039;-93
2021/06/07 06:41:09;;;;;;;22.50;14.43;;;;;;;21.90;56.06;98843.22;5118453;28;20504;-92
2021/06/07 06:43:35;;;;;;;18.95;13.32;;;;;;;22.10;54.97;98839.94;5118403;28;20125;-90
2021/06/07 06:46:02;;;;;;;21.33;13.13;;;;;;;21.85;55.50;98850.84;5116364;27;20040;-91
2021/06/07 06:48:28;;;;;;;20.17;13.40;;;;;;;21.98;55.54;98831.84;5118681;28;20078;-93
2021/06/07 06:50:54;;;;;;;20.17;13.60;;;;;;;21.80;55.37;98818.69;5118482;28;20046;-93
2021/06/07 06:53:21;;;;;;;20.05;13.25;;;;;;;21.92;55.59;98846.69;5118064;28;20135;-90
2021/06/07 06:55:49;;;;;;;19.08;13.60;;;;;;;22.31;55.38;98842.94;5117074;27;20039;-90
2021/06/07 06:58:16;;;;;;;18.50;13.40;;;;;;;22.56;54.14;98846.53;5117795;28;20515;-91
2021/06/07 07:00:42;;;;;;;26.75;13.40;;;;;;;22.54;53.93;98845.78;5115794;28;20039;-93
2021/06/07 07:03:10;;;;;;;21.40;13.75;;;;;;;22.48;54.79;98828.13;5118387;28;20066;-91
2021/06/07 07:05:37;;;;;;;19.45;13.60;;;;;;;22.70;53.36;98857.19;5119652;28;20114;-93
2021/06/07 07:08:03;;;;;;;23.73;13.73;;;;;;;23.03;52.58;98820.38;5119573;27;20043;-91
2021/06/07 07:10:30;;;;;;;22.40;13.52;;;;;;;23.27;51.91;98827.56;5119047;28;20099;-94
2021/06/07 07:12:57;;;;;;;18.70;12.57;;;;;;;23.58;51.35;98829.59;5118208;28;20035;-91
2021/06/07 07:15:23;;;;;;;20.20;12.88;;;;;;;23.89;50.50;98829.88;5118410;28;20080;-92
2021/06/07 07:17:49;;;;;;;22.30;12.80;;;;;;;24.03;49.75;98846.91;5119044;28;20036;-92
2021/06/07 07:20:15;;;;;;;21.63;12.90;;;;;;;23.93;49.95;98825.06;5118411;28;20074;-92
2021/06/07 07:22:42;;;;;;;18.88;12.70;;;;;;;23.91;50.43;98838.75;5119841;28;20039;-95
2021/06/07 07:25:10;;;;;;;19.15;11.25;;;;;;;24.00;50.32;98820.84;5118100;28;20097;-93
2021/06/07 07:27:37;;;;;;;18.08;11.73;;;;;;;24.35;48.93;98844.25;5118163;28;20052;-93
2021/06/07 07:30:08;;;;;;;16.88;12.45;;;;;;;24.51;47.92;98841.19;5116073;28;20043;-91
2021/06/07 07:32:34;;;;;;;16.95;11.60;;;;;;;24.49;48.45;98848.59;5111282;28;20557;-92
2021/06/07 07:35:00;;;;;;;18.30;12.15;;;;;;;24.70;48.15;98841.38;5118638;28;20084;-93
2021/06/07 07:37:26;;;;;;;16.85;12.20;;;;;;;24.79;47.58;98837.00;5117950;28;20100;-93
2021/06/07 07:39:52;;;;;;;16.00;11.90;;;;;;;24.78;47.35;98838.84;5118572;28;20031;-93
2021/06/07 07:42:18;;;;;;;18.85;13.40;;;;;;;24.06;48.92;98830.38;5117905;28;20040;-91
2021/06/07 07:44:44;;;;;;;18.30;12.82;;;;;;;23.86;50.02;98838.28;5118572;28;20036;-92
2021/06/07 07:47:12;;;;;;;17.77;13.13;;;;;;;23.89;49.15;98827.16;5117683;28;20040;-91
2021/06/07 07:49:38;;;;;;;17.33;11.93;;;;;;;24.21;48.84;98826.38;5118584;28;20058;-92
2021/06/07 07:52:07;;;;;;;20.67;12.55;;;;;;;24.41;48.76;98822.00;5118893;28;20031;-90
2021/06/07 07:54:34;;;;;;;18.50;12.50;;;;;;;24.71;47.51;98843.06;5115074;28;20535;-93
2021/06/07 07:57:00;;;;;;;20.20;12.77;;;;;;;25.21;46.44;98832.47;5117617;28;20043;-92
2021/06/07 07:59:26;;;;;;;18.45;12.77;;;;;;;24.73;46.31;98824.78;5117817;28;20052;-90
2021/06/07 08:01:52;;;;;;;18.95;12.18;;;;;;;24.88;46.32;98828.06;5114696;28;20118;-93
2021/06/07 08:04:20;;;;;;;17.83;12.52;;;;;;;24.62;47.95;98838.41;5114403;28;20590;-93
2021/06/07 08:06:46;;;;;;;18.63;11.93;;;;;;;24.64;48.10;98847.31;5118346;28;20054;-92
2021/06/07 08:09:12;;;;;;;21.33;11.95;;;;;;;24.70;47.66;98830.47;5118593;28;20035;-93
2021/06/07 08:11:38;;;;;;;18.83;12.95;;;;;;;24.77;47.13;98834.41;5118523;28;20047;-94
2021/06/07 08:14:04;;;;;;;18.65;11.77;;;;;;;25.29;46.28;98841.84;5117930;28;20067;-93
2021/06/07 08:16:31;;;;;;;19.75;11.93;;;;;;;25.55;45.66;98815.06;5117557;28;20043;-92
2021/06/07 08:18:57;;;;;;;15.98;11.20;;;;;;;25.98;44.20;98819.41;5117721;28;20104;-91
2021/06/07 08:21:24;;;;;;;14.63;11.57;;;;;;;26.28;43.26;98812.19;5118093;28;20046;-92
2021/06/07 08:23:50;;;;;;;17.73;12.77;;;;;;;25.96;43.60;98829.63;5118855;28;20063;-92
2021/06/07 08:26:16;;;;;;;21.35;12.30;;;;;;;26.06;43.81;98819.59;5119242;28;20047;-90
2021/06/07 08:28:42;;;;;;;16.88;11.90;;;;;;;25.41;44.42;98835.31;5115413;28;20044;-93
2021/06/07 08:31:08;;;;;;;14.18;10.63;;;;;;;25.59;44.09;98820.09;5120031;28;20071;-93
2021/06/07 08:33:36;;;;;;;13.20;9.57;;;;;;;25.83;43.03;98827.09;5118441;28;20107;-94
2021/06/07 08:36:03;;;;;;;14.18;10.43;;;;;;;25.38;43.41;98824.72;5118044;28;20040;-93
2021/06/07 08:38:34;;;;;;;16.03;10.70;;;;;;;24.78;45.43;98819.78;5117882;28;20055;-94
2021/06/07 08:41:00;;;;;;;13.32;10.32;;;;;;;23.94;47.73;98843.97;5118131;28;20054;-92
2021/06/07 08:43:26;;;;;;;12.88;10.27;;;;;;;24.06;47.12;98838.50;5115311;28;20051;-91
2021/06/07 08:45:53;;;;;;;12.15;10.40;;;;;;;24.64;45.69;98841.03;5115101;28;20082;-94
2021/06/07 08:48:22;;;;;;;13.57;9.60;;;;;;;24.52;45.32;98826.56;5112977;28;20051;-94
2021/06/07 08:50:48;;;;;;;16.48;9.60;;;;;;;25.33;44.89;98821.50;5119056;28;20049;-93
2021/06/07 08:53:15;;;;;;;13.93;10.45;;;;;;;25.09;43.90;98828.06;5120635;28;20040;-90
2021/06/07 08:55:42;;;;;;;14.23;10.35;;;;;;;25.27;44.00;98819.34;5117301;28;20130;-92
2021/06/07 08:58:10;;;;;;;12.07;10.25;;;;;;;25.98;42.03;98812.13;5119589;28;20032;-92
2021/06/07 09:00:38;;;;;;;12.77;10.60;;;;;;;26.46;42.21;98818.69;5116074;28;20035;-92
2021/06/07 09:03:06;;;;;;;;;;;;;;;26.07;42.07;98825.91;5118478;28;20089;-92
2021/06/07 09:05:32;;;;;;;14.43;9.53;;;;;;;25.96;42.75;98826.91;5116520;28;19920;-91
2021/06/07 09:08:01;;;;;;;15.77;10.23;;;;;;;26.40;41.94;98808.34;5115995;28;20295;-92
2021/06/07 09:10:30;;;;;;;13.65;9.98;;;;;;;25.99;43.10;98812.97;5120409;27;20083;-91
2021/06/07 09:13:00;;;;;;;13.90;10.13;;;;;;;25.53;42.98;98823.34;5112034;28;20051;-95
2021/06/07 09:15:30;;;;;;;17.55;10.88;;;;;;;25.30;43.30;98797.28;5122496;28;20036;-94
2021/06/07 09:17:56;;;;;;;17.98;10.77;;;;;;;26.03;41.75;98825.34;5118911;28;20044;-93
2021/06/07 09:20:23;;;;;;;12.60;9.95;;;;;;;26.66;40.88;98814.16;5116759;28;20044;-93
2021/06/07 09:22:51;;;;;;;13.95;9.00;;;;;;;27.28;39.62;98808.38;5116986;28;20118;-93
2021/06/07 09:25:19;;;;;;;15.50;9.77;;;;;;;26.68;40.46;98820.31;5116451;28;20043;-93
2021/06/07 09:28:08;;;;;;;15.23;9.47;;;;;;;27.01;41.72;98815.44;5115496;28;20075;-93
2021/06/07 09:30:38;;;;;;;14.23;9.98;;;;;;;27.10;41.27;98811.81;5116579;28;20040;-94
2021/06/07 09:33:24;;;;;;;15.32;9.82;;;;;;;27.11;40.58;98808.09;5117001;28;20120;-92
2021/06/07 09:36:13;;;;;;;13.07;9.95;;;;;;;27.84;38.57;98810.22;5119091;28;20035;-94
2021/06/07 09:39:04;;;;;;;11.52;9.30;;;;;;;28.10;38.53;98812.28;5116931;28;20135;-95
2021/06/07 09:41:32;;;;;;;16.15;9.57;;;;;;;28.28;37.62;98785.84;5119178;28;20479;-94
2021/06/07 09:44:00;;;;;;;;;;;;;;;28.23;37.74;98823.72;5121333;28;20044;-94
2021/06/07 09:46:28;;;;;;;11.40;8.20;;;;;;;28.72;36.60;98799.66;5119395;28;19926;-95
2021/06/07 09:49:11;;;;;;;11.75;8.23;;;;;;;28.12;37.96;98804.78;5120421;28;20039;-92
2021/06/07 09:51:38;;;;;;;13.52;9.35;;;;;;;27.33;38.62;98803.34;5117997;28;20050;-93
2021/06/07 09:54:05;;;;;;;16.13;9.15;;;;;;;28.04;38.35;98811.88;5119111;28;20374;-92
2021/06/07 09:56:30;;;;;;;10.75;8.95;;;;;;;28.29;38.42;98817.63;5118957;27;20100;-89
2021/06/07 09:58:56;;;;;;;13.50;8.95;;;;;;;28.49;37.48;98798.41;5124187;28;20043;-93
2021/06/07 10:04:49;;;;;;;13.65;8.95;;;;;;;28.12;37.85;98810.25;5148956;27;20139;-92
2021/06/07 10:07:15;;;;;;;13.70;10.23;;;;;;;27.04;39.60;98804.22;5131822;28;20531;-92
2021/06/07 10:10:08;;;;;;;11.75;9.00;;;;;;;26.33;41.03;98813.50;5134327;27;20039;-92
2021/06/07 10:12:35;;;;;;;10.43;7.22;;;;;;;26.82;39.64;98798.06;5133513;27;20035;-90
2021/06/07 10:15:01;;;;;;;8.38;6.25;;;;;;;27.82;37.03;98798.56;5132240;28;20182;-93
2021/06/07 10:17:30;;;;;;;10.80;6.50;;;;;;;28.38;36.44;98808.50;5132179;27;20032;-94
2021/06/07 10:22:56;;;;;;;11.77;6.45;;;;;;;29.03;34.99;98791.88;5151029;27;20577;-93
2021/06/07 10:25:22;;;;;;;11.98;7.25;;;;;;;29.23;35.50;98767.06;5134507;27;20047;-94
2021/06/07 10:27:48;;;;;;;16.90;8.65;;;;;;;28.26;35.73;98788.72;5133928;27;20048;-92
2021/06/07 10:30:20;;;;;;;14.70;8.05;;;;;;;27.12;38.61;98779.78;5127328;27;20135;-93
2021/06/07 10:32:47;;;;;;;11.50;7.50;;;;;;;26.79;40.82;98797.50;5132614;27;20040;-90
2021/06/07 10:35:30;;;;;;;11.23;8.35;;;;;;;24.77;46.17;98796.31;5131591;27;20522;-93
2021/06/07 10:38:07;;;;;;;9.98;7.60;;;;;;;24.76;47.31;98818.19;5133256;27;20043;-91
2021/06/07 10:40:33;;;;;;;12.63;7.80;;;;;;;24.69;47.76;98811.56;5122837;28;20106;-93
2021/06/07 10:43:03;;;;;;;12.13;8.43;;;;;;;24.57;47.59;98797.13;5131011;28;20039;-93
2021/06/07 10:45:31;;;;;;;13.32;8.63;;;;;;;24.77;46.86;98815.38;5129813;28;20054;-92
2021/06/07 10:47:59;;;;;;;11.30;8.20;;;;;;;24.53;48.92;98810.16;5132878;27;20396;-94
2021/06/07 10:50:27;;;;;;;12.10;7.70;;;;;;;24.21;49.72;98818.22;5133883;27;20511;-90
2021/06/07 10:52:57;;;;;;;11.98;7.78;;;;;;;24.14;49.60;98815.16;5133401;28;20054;-95
2021/06/07 10:55:30;;;;;;;10.60;7.97;;;;;;;23.89;50.48;98812.72;5133373;27;20036;-95
2021/06/07 10:57:58;;;;;;;13.65;8.30;;;;;;;24.23;49.93;98799.94;5130973;28;20039;-91
2021/06/07 11:00:28;;;;;;;11.38;8.27;;;;;;;24.73;48.77;98786.69;5127091;28;20067;-94
2021/06/07 11:02:56;;;;;;;10.00;7.20;;;;;;;25.18;47.55;98782.88;5131949;27;20516;-93
2021/06/07 11:05:25;;;;;;;10.65;7.47;;;;;;;24.85;48.46;98776.63;5132894;27;20126;-94
2021/06/07 11:08:02;;;;;;;11.38;6.80;;;;;;;24.90;48.19;98787.13;5133023;27;20048;-93
2021/06/07 11:10:32;;;;;;;8.40;6.50;;;;;;;24.63;48.47;98782.19;5131687;28;20043;-92
2021/06/07 11:13:01;;;;;;;8.65;6.10;;;;;;;24.70;46.96;98784.25;5131860;27;20284;-94
2021/06/07 11:15:29;;;;;;;10.73;6.35;;;;;;;24.85;46.89;98765.72;5129986;27;20074;-94
2021/06/07 11:18:32;;;;;;;8.68;6.53;;;;;;;25.63;45.58;98774.38;5132866;28;20047;-96
2021/06/07 11:21:00;;;;;;;8.13;6.00;;;;;;;25.71;43.89;98766.38;5132965;27;20497;-94
2021/06/07 11:23:36;;;;;;;8.60;5.72;;;;;;;26.14;43.26;98767.13;5133804;27;20031;-91
2021/06/07 11:26:08;;;;;;;10.80;5.68;;;;;;;25.99;42.51;98780.28;5133639;27;20093;-95
2021/06/07 11:28:40;;;;;;;11.10;6.68;;;;;;;25.66;42.00;98767.81;5133739;27;20040;-94
2021/06/07 11:31:37;;;;;;;10.45;6.15;;;;;;;26.01;42.88;98776.41;5131429;27;20040;-92